createdAt,value
2023-04-26T00:00:47.249Z,100.00
2023-04-26T00:03:15.086Z,100.00
2023-04-26T00:05:44.224Z,100.00
2023-04-26T00:08:11.891Z,100.00
2023-04-26T00:10:40.726Z,100.00
2023-04-26T00:13:08.439Z,100.00
2023-04-26T00:15:36.494Z,100.00
2023-04-26T00:18:04.466Z,100.00
2023-04-26T00:20:32.102Z,100.00
2023-04-26T00:23:01.634Z,100.00
2023-04-26T00:25:29.547Z,100.00
2023-04-26T00:27:57.201Z,100.00
2023-04-26T00:30:24.766Z,100.00
2023-04-26T00:32:52.730Z,100.00
2023-04-26T00:35:20.633Z,100.00
2023-04-26T00:37:48.282Z,100.00
2023-04-26T00:40:17.495Z,100.00
2023-04-26T00:42:45.405Z,100.00
2023-04-26T00:45:13.019Z,100.00
2023-04-26T00:47:41.018Z,100.00
2023-04-26T00:50:10.841Z,100.00
2023-04-26T00:52:39.462Z,100.00
2023-04-26T00:55:08.323Z,100.00
2023-04-26T00:57:37.496Z,100.00
2023-04-26T01:00:06.647Z,100.00
2023-04-26T01:02:34.600Z,100.00
2023-04-26T01:05:02.368Z,100.00
2023-04-26T01:07:30.118Z,100.00
2023-04-26T01:09:59.195Z,100.00
2023-04-26T01:12:27.872Z,100.00
2023-04-26T01:14:57.862Z,100.00
2023-04-26T01:17:25.912Z,100.00
2023-04-26T01:19:54.026Z,100.00
2023-04-26T01:22:21.831Z,100.00
2023-04-26T01:24:52.610Z,100.00
2023-04-26T01:27:20.205Z,100.00
2023-04-26T01:29:47.853Z,100.00
2023-04-26T01:32:15.667Z,100.00
2023-04-26T01:34:43.367Z,100.00
2023-04-26T01:37:11.518Z,100.00
2023-04-26T01:39:39.183Z,100.00
2023-04-26T01:42:08.331Z,100.00
2023-04-26T01:44:35.957Z,100.00
2023-04-26T01:47:04.502Z,100.00
2023-04-26T01:49:32.653Z,100.00
2023-04-26T01:52:00.473Z,100.00
2023-04-26T01:54:28.208Z,100.00
2023-04-26T01:56:55.835Z,100.00
2023-04-26T01:59:24.773Z,100.00
2023-04-26T02:01:52.442Z,100.00
2023-04-26T02:04:20.089Z,100.00
2023-04-26T02:06:47.718Z,100.00
2023-04-26T02:09:15.824Z,100.00
2023-04-26T02:11:43.407Z,100.00
2023-04-26T02:14:11.007Z,100.00
2023-04-26T02:16:40.614Z,100.00
2023-04-26T02:19:10.909Z,100.00
2023-04-26T02:21:52.614Z,100.00
2023-04-26T02:24:21.443Z,100.00
2023-04-26T02:26:49.176Z,100.00
2023-04-26T02:29:16.921Z,100.00
2023-04-26T02:31:46.085Z,100.00
2023-04-26T02:34:13.946Z,100.00
2023-04-26T02:36:41.624Z,100.00
2023-04-26T02:39:09.672Z,100.00
2023-04-26T02:41:37.233Z,100.00
2023-04-26T02:44:05.051Z,100.00
2023-04-26T02:46:32.763Z,100.00
2023-04-26T02:49:01.693Z,100.00
2023-04-26T02:51:29.355Z,100.00
2023-04-26T02:53:57.054Z,100.00
2023-04-26T02:56:24.814Z,100.00
2023-04-26T02:58:52.678Z,100.00
2023-04-26T03:01:21.256Z,100.00
2023-04-26T03:03:49.333Z,100.00
2023-04-26T03:06:18.478Z,100.00
2023-04-26T03:08:46.100Z,100.00
2023-04-26T03:11:13.749Z,100.00
2023-04-26T03:13:41.332Z,100.00
2023-04-26T03:16:09.406Z,100.00
2023-04-26T03:18:37.438Z,100.00
2023-04-26T03:21:05.423Z,100.00
2023-04-26T03:23:34.431Z,100.00
2023-04-26T03:26:02.109Z,100.00
2023-04-26T03:28:29.704Z,100.00
2023-04-26T03:30:57.337Z,100.00
2023-04-26T03:33:24.942Z,100.00
2023-04-26T03:35:52.544Z,100.00
2023-04-26T03:38:20.359Z,100.00
2023-04-26T03:40:49.387Z,100.00
2023-04-26T03:43:17.038Z,100.00
2023-04-26T03:45:48.864Z,100.00
2023-04-26T03:48:17.267Z,100.00
2023-04-26T03:50:46.425Z,100.00
2023-04-26T03:53:14.076Z,100.00
2023-04-26T03:55:41.684Z,100.00
2023-04-26T03:58:10.686Z,100.00
2023-04-26T04:00:39.116Z,100.00
2023-04-26T04:03:07.841Z,100.00
2023-04-26T04:05:36.090Z,100.00
2023-04-26T04:08:04.121Z,100.00
2023-04-26T04:10:31.744Z,100.00
2023-04-26T04:12:59.404Z,100.00
2023-04-26T04:15:28.433Z,100.00
2023-04-26T04:17:56.158Z,100.00
2023-04-26T04:20:23.839Z,100.00
2023-04-26T04:22:51.700Z,100.00
2023-04-26T04:25:21.218Z,100.00
2023-04-26T04:27:50.153Z,100.00
2023-04-26T04:30:18.268Z,100.00
2023-04-26T04:32:47.363Z,100.00
2023-04-26T04:35:17.214Z,100.00
2023-04-26T04:37:45.480Z,100.00
2023-04-26T04:40:14.219Z,100.00
2023-04-26T04:42:44.576Z,100.00
2023-04-26T04:45:13.236Z,100.00
2023-04-26T04:47:40.871Z,100.00
2023-04-26T04:50:10.651Z,100.00
2023-04-26T04:52:38.254Z,100.00
2023-04-26T04:55:06.795Z,100.00
2023-04-26T04:57:34.420Z,100.00
2023-04-26T05:00:07.396Z,100.00
2023-04-26T05:02:35.879Z,100.00
2023-04-26T05:05:05.023Z,100.00
2023-04-26T05:07:35.241Z,100.00
2023-04-26T05:10:03.642Z,100.00
2023-04-26T05:12:31.435Z,100.00
2023-04-26T05:14:59.107Z,97.70
2023-04-26T05:17:26.749Z,86.51
2023-04-26T05:19:54.375Z,84.51
2023-04-26T05:22:23.232Z,77.00
2023-04-26T05:24:52.218Z,74.31
2023-04-26T05:27:19.922Z,69.30
2023-04-26T05:29:47.517Z,66.27
2023-04-26T05:32:15.176Z,65.65
2023-04-26T05:34:42.823Z,70.28
2023-04-26T05:37:10.468Z,65.73
2023-04-26T05:39:38.345Z,60.09
2023-04-26T05:42:07.352Z,61.89
2023-04-26T05:44:34.929Z,61.67
2023-04-26T05:47:02.506Z,57.55
2023-04-26T05:49:30.101Z,58.52
2023-04-26T05:52:00.492Z,57.98
2023-04-26T05:54:28.111Z,52.80
2023-04-26T05:56:57.809Z,53.29
2023-04-26T05:59:28.038Z,48.47
2023-04-26T06:01:55.765Z,47.50
2023-04-26T06:04:23.521Z,49.37
2023-04-26T06:06:51.486Z,47.20
2023-04-26T06:09:20.204Z,45.47
2023-04-26T06:11:48.255Z,50.59
2023-04-26T06:14:29.592Z,49.36
2023-04-26T06:16:59.338Z,49.61
2023-04-26T06:19:26.970Z,44.85
2023-04-26T06:21:57.177Z,44.29
2023-04-26T06:24:25.858Z,47.82
2023-04-26T06:26:53.556Z,49.07
2023-04-26T06:29:21.605Z,48.46
2023-04-26T06:31:49.335Z,52.18
2023-04-26T06:34:18.367Z,57.84
2023-04-26T06:36:47.335Z,59.00
2023-04-26T06:39:15.387Z,59.39
2023-04-26T06:41:43.387Z,63.24
2023-04-26T06:44:11.150Z,62.60
2023-04-26T06:46:38.917Z,61.83
2023-04-26T06:49:07.096Z,59.58
2023-04-26T06:51:36.600Z,61.96
2023-04-26T06:54:04.270Z,59.22
2023-04-26T06:56:32.169Z,56.72
2023-04-26T06:59:01.312Z,59.07
2023-04-26T07:01:29.380Z,56.86
2023-04-26T07:03:58.345Z,60.00
2023-04-26T07:06:27.376Z,59.95
2023-04-26T07:08:56.366Z,58.26
2023-04-26T07:11:25.815Z,57.14
2023-04-26T07:13:54.307Z,65.36
2023-04-26T07:16:22.127Z,63.74
2023-04-26T07:18:49.885Z,71.60
2023-04-26T07:21:18.189Z,74.55
2023-04-26T07:23:46.084Z,70.27
2023-04-26T07:26:15.090Z,72.84
2023-04-26T07:28:42.693Z,68.34
2023-04-26T07:31:11.069Z,66.09
2023-04-26T07:33:39.409Z,66.38
2023-04-26T07:36:07.726Z,69.02
2023-04-26T07:38:35.391Z,68.44
2023-04-26T07:41:03.087Z,72.04
2023-04-26T07:43:32.627Z,68.71
2023-04-26T07:46:01.885Z,73.42
2023-04-26T07:48:29.981Z,74.99
2023-04-26T07:50:57.795Z,79.95
2023-04-26T07:53:25.540Z,78.71
2023-04-26T07:55:53.519Z,81.16
2023-04-26T07:58:21.593Z,81.67
2023-04-26T08:00:51.046Z,82.46
2023-04-26T08:03:18.933Z,77.42
2023-04-26T08:05:47.271Z,84.54
2023-04-26T08:08:16.135Z,81.23
2023-04-26T08:10:44.912Z,77.05
2023-04-26T08:13:12.503Z,74.86
2023-04-26T08:15:40.546Z,74.77
2023-04-26T08:18:09.710Z,73.74
2023-04-26T08:20:37.466Z,72.23
2023-04-26T08:23:05.058Z,69.88
2023-04-26T08:25:34.654Z,65.54
2023-04-26T08:28:02.860Z,59.33
2023-04-26T08:30:30.591Z,67.64
2023-04-26T08:32:58.221Z,67.56
2023-04-26T08:35:27.535Z,74.59
2023-04-26T08:37:55.128Z,72.68
2023-04-26T08:40:24.767Z,74.44
2023-04-26T08:42:53.582Z,75.49
2023-04-26T08:45:21.944Z,67.59
2023-04-26T08:47:51.033Z,68.69
2023-04-26T08:50:22.394Z,81.68
2023-04-26T08:52:52.936Z,93.91
2023-04-26T08:55:21.880Z,100.00
2023-04-26T08:57:50.814Z,100.00
2023-04-26T09:00:19.678Z,100.00
2023-04-26T09:02:49.044Z,100.00
2023-04-26T09:05:17.022Z,100.00
2023-04-26T09:07:47.078Z,100.00
2023-04-26T09:10:21.310Z,100.00
2023-04-26T09:12:53.072Z,100.00
2023-04-26T09:15:22.654Z,100.00
2023-04-26T09:17:51.525Z,100.00
2023-04-26T09:20:22.099Z,100.00
2023-04-26T09:22:50.975Z,100.00
2023-04-26T09:25:27.751Z,100.00
2023-04-26T09:27:55.564Z,95.84
2023-04-26T09:30:23.375Z,90.02
2023-04-26T09:32:53.642Z,80.32
2023-04-26T09:35:30.085Z,79.68
2023-04-26T09:38:05.637Z,78.17
2023-04-26T09:40:40.670Z,76.57
2023-04-26T09:43:09.761Z,100.00
2023-04-26T09:45:45.892Z,100.00
2023-04-26T09:48:16.652Z,100.00
2023-04-26T09:50:46.202Z,100.00
2023-04-26T09:53:26.841Z,100.00
2023-04-26T09:55:56.684Z,100.00
2023-04-26T09:58:24.564Z,100.00
2023-04-26T10:00:54.450Z,100.00
2023-04-26T10:03:24.271Z,100.00
2023-04-26T10:05:52.263Z,100.00
2023-04-26T10:08:20.393Z,100.00
2023-04-26T10:10:48.931Z,100.00
2023-04-26T10:13:19.747Z,100.00
2023-04-26T10:15:48.865Z,100.00
2023-04-26T10:18:17.149Z,100.00
2023-04-26T10:20:49.633Z,100.00
2023-04-26T10:23:21.120Z,100.00
2023-04-26T10:25:49.635Z,100.00
2023-04-26T10:28:18.802Z,100.00
2023-04-26T10:30:56.378Z,100.00
2023-04-26T10:33:24.607Z,100.00
2023-04-26T10:36:04.889Z,100.00
2023-04-26T10:38:33.654Z,100.00
2023-04-26T10:41:31.096Z,100.00
2023-04-26T10:44:01.917Z,100.00
2023-04-26T10:46:38.296Z,100.00
2023-04-26T10:49:17.067Z,100.00
2023-04-26T10:52:15.052Z,100.00
2023-04-26T10:54:50.314Z,100.00
2023-04-26T10:57:18.209Z,100.00
2023-04-26T11:00:20.860Z,100.00
2023-04-26T11:02:55.894Z,100.00
2023-04-26T11:05:55.421Z,100.00
2023-04-26T11:08:27.172Z,100.00
2023-04-26T11:11:12.245Z,97.11
2023-04-26T11:13:41.582Z,100.00
2023-04-26T11:16:11.850Z,100.00
2023-04-26T11:18:41.950Z,100.00
2023-04-26T11:21:10.509Z,93.55
2023-04-26T11:23:38.943Z,94.96
2023-04-26T11:26:08.165Z,89.74
2023-04-26T11:28:36.955Z,83.95
2023-04-26T11:31:05.541Z,80.24
2023-04-26T11:33:35.090Z,76.31
2023-04-26T11:36:03.880Z,69.56
2023-04-26T11:38:31.917Z,74.47
2023-04-26T11:41:00.916Z,69.87
2023-04-26T11:43:35.348Z,89.93
2023-04-26T11:46:03.485Z,100.00
2023-04-26T11:48:31.961Z,100.00
2023-04-26T11:51:03.765Z,100.00
2023-04-26T11:53:38.061Z,100.00
2023-04-26T11:56:14.065Z,100.00
2023-04-26T11:58:41.682Z,100.00
2023-04-26T12:01:09.405Z,100.00
2023-04-26T12:03:37.984Z,100.00
2023-04-26T12:06:07.676Z,100.00
2023-04-26T12:08:35.430Z,100.00
2023-04-26T12:11:03.565Z,100.00
2023-04-26T12:13:32.525Z,100.00
2023-04-26T12:16:00.344Z,100.00
2023-04-26T12:18:31.564Z,100.00
2023-04-26T12:20:59.745Z,100.00
2023-04-26T12:23:28.966Z,100.00
2023-04-26T12:26:02.000Z,100.00
2023-04-26T12:28:29.611Z,100.00
2023-04-26T12:30:57.218Z,90.46
2023-04-26T12:33:25.385Z,91.99
2023-04-26T12:35:53.050Z,86.47
2023-04-26T12:38:21.590Z,88.50
2023-04-26T12:40:51.286Z,98.70
2023-04-26T12:43:19.871Z,100.00
2023-04-26T12:45:47.720Z,100.00
2023-04-26T12:48:15.841Z,100.00
2023-04-26T12:50:44.168Z,100.00
2023-04-26T12:53:11.985Z,100.00
2023-04-26T12:55:39.690Z,100.00
2023-04-26T12:58:08.622Z,100.00
2023-04-26T13:00:36.233Z,100.00
2023-04-26T13:03:04.120Z,100.00
2023-04-26T13:05:32.311Z,100.00
2023-04-26T13:08:02.126Z,100.00
2023-04-26T13:10:29.934Z,100.00
2023-04-26T13:12:58.462Z,93.78
2023-04-26T13:15:27.592Z,94.21
2023-04-26T13:17:55.279Z,92.38
2023-04-26T13:20:25.620Z,86.49
2023-04-26T13:22:53.922Z,86.24
2023-04-26T13:25:22.428Z,93.25
2023-04-26T13:27:51.395Z,90.34
2023-04-26T13:30:19.132Z,83.27
2023-04-26T13:32:48.262Z,89.92
2023-04-26T13:35:15.928Z,95.46
2023-04-26T13:37:43.714Z,94.67
2023-04-26T13:40:12.214Z,100.00
2023-04-26T13:42:40.696Z,96.81
2023-04-26T13:45:10.341Z,97.28
2023-04-26T13:47:38.105Z,100.00
2023-04-26T13:50:08.164Z,100.00
2023-04-26T13:52:37.161Z,100.00
2023-04-26T13:55:05.125Z,100.00
2023-04-26T13:57:32.893Z,100.00
2023-04-26T14:00:00.507Z,100.00
2023-04-26T14:02:28.268Z,100.00
2023-04-26T14:04:56.096Z,100.00
2023-04-26T14:07:25.591Z,100.00
2023-04-26T14:09:53.356Z,100.00
2023-04-26T14:12:20.965Z,93.30
2023-04-26T14:14:48.701Z,91.64
2023-04-26T14:17:16.267Z,89.94
2023-04-26T14:19:43.900Z,84.42
2023-04-26T14:22:12.773Z,86.27
2023-04-26T14:24:42.659Z,90.04
2023-04-26T14:27:10.315Z,90.74
2023-04-26T14:29:38.225Z,89.85
2023-04-26T14:32:06.478Z,82.74
2023-04-26T14:34:35.962Z,79.33
2023-04-26T14:37:04.839Z,78.14
2023-04-26T14:39:32.638Z,84.29
2023-04-26T14:42:01.679Z,83.51
2023-04-26T14:44:29.650Z,81.13
2023-04-26T14:46:57.390Z,84.73
2023-04-26T14:49:25.044Z,90.00
2023-04-26T14:51:53.717Z,87.04
2023-04-26T14:54:22.461Z,84.81
2023-04-26T14:56:51.331Z,91.44
2023-04-26T14:59:20.400Z,89.41
2023-04-26T15:01:48.613Z,84.45
2023-04-26T15:04:16.506Z,96.24
2023-04-26T15:06:44.404Z,100.00
2023-04-26T15:09:12.191Z,100.00
2023-04-26T15:11:40.237Z,100.00
2023-04-26T15:14:07.858Z,100.00
2023-04-26T15:16:37.076Z,100.00
2023-04-26T15:19:04.713Z,100.00
2023-04-26T15:21:34.252Z,100.00
2023-04-26T15:24:01.908Z,95.67
2023-04-26T15:26:30.992Z,92.94
2023-04-26T15:28:58.812Z,88.34
2023-04-26T15:31:26.901Z,83.87
2023-04-26T15:33:56.375Z,88.51
2023-04-26T15:36:24.398Z,86.21
2023-04-26T15:38:52.040Z,84.89
2023-04-26T15:41:20.044Z,85.21
2023-04-26T15:43:47.657Z,84.31
2023-04-26T15:46:15.751Z,84.11
2023-04-26T15:48:43.466Z,76.65
2023-04-26T15:51:12.568Z,78.34
2023-04-26T15:53:43.593Z,80.46
2023-04-26T15:56:15.353Z,78.13
2023-04-26T15:58:43.820Z,77.70
2023-04-26T16:01:12.563Z,77.23
2023-04-26T16:03:41.798Z,75.78
2023-04-26T16:06:12.499Z,73.25
2023-04-26T16:08:40.904Z,72.52
2023-04-26T16:11:09.024Z,64.85
2023-04-26T16:13:37.215Z,66.82
2023-04-26T16:16:08.322Z,65.55
2023-04-26T16:18:36.058Z,67.43
2023-04-26T16:21:07.340Z,64.70
2023-04-26T16:23:36.665Z,66.20
2023-04-26T16:26:04.549Z,68.17
2023-04-26T16:28:32.444Z,70.37
2023-04-26T16:31:00.209Z,74.31
2023-04-26T16:33:28.228Z,76.36
2023-04-26T16:35:56.068Z,74.55
2023-04-26T16:38:23.876Z,80.01
2023-04-26T16:40:57.949Z,81.93
2023-04-26T16:43:27.144Z,82.04
2023-04-26T16:45:59.211Z,82.97
2023-04-26T16:48:27.163Z,88.79
2023-04-26T16:50:54.938Z,93.63
2023-04-26T16:53:22.660Z,97.21
2023-04-26T16:55:51.151Z,99.36
2023-04-26T16:58:20.498Z,92.53
2023-04-26T17:00:48.242Z,99.02
2023-04-26T17:03:16.225Z,95.46
2023-04-26T17:05:46.928Z,86.74
2023-04-26T17:08:14.854Z,91.88
2023-04-26T17:10:42.596Z,85.12
2023-04-26T17:13:11.357Z,84.97
2023-04-26T17:15:40.839Z,93.90
2023-04-26T17:18:09.774Z,96.11
2023-04-26T17:20:38.056Z,100.00
2023-04-26T17:23:05.871Z,100.00
2023-04-26T17:25:33.511Z,100.00
2023-04-26T17:28:01.111Z,100.00
2023-04-26T17:30:28.894Z,100.00
2023-04-26T17:32:57.958Z,100.00
2023-04-26T17:35:25.807Z,100.00
2023-04-26T17:37:53.686Z,100.00
2023-04-26T17:40:21.546Z,100.00
2023-04-26T17:42:49.190Z,100.00
2023-04-26T17:45:17.672Z,100.00
2023-04-26T17:47:46.169Z,100.00
2023-04-26T17:50:17.702Z,100.00
2023-04-26T17:52:45.552Z,100.00
2023-04-26T17:55:13.303Z,100.00
2023-04-26T17:57:40.968Z,100.00
2023-04-26T18:00:10.318Z,100.00
2023-04-26T18:02:38.576Z,100.00
2023-04-26T18:05:08.552Z,100.00
2023-04-26T18:07:38.490Z,100.00
2023-04-26T18:10:07.480Z,100.00
2023-04-26T18:12:36.193Z,100.00
2023-04-26T18:15:03.908Z,100.00
2023-04-26T18:17:31.796Z,100.00
2023-04-26T18:19:59.939Z,100.00
2023-04-26T18:22:27.512Z,100.00
2023-04-26T18:24:56.442Z,100.00
2023-04-26T18:27:24.102Z,100.00
2023-04-26T18:29:51.761Z,100.00
2023-04-26T18:32:19.398Z,100.00
2023-04-26T18:34:47.922Z,100.00
2023-04-26T18:37:15.546Z,100.00
2023-04-26T18:39:43.138Z,100.00
2023-04-26T18:42:12.479Z,100.00
2023-04-26T18:44:40.113Z,100.00
2023-04-26T18:47:07.831Z,100.00
2023-04-26T18:49:35.503Z,100.00
2023-04-26T18:52:03.740Z,100.00
2023-04-26T18:54:37.052Z,100.00
2023-04-26T18:57:04.810Z,100.00
2023-04-26T18:59:33.743Z,100.00
2023-04-26T19:02:01.599Z,100.00
2023-04-26T19:04:29.462Z,100.00
2023-04-26T19:06:57.391Z,100.00
2023-04-26T19:09:25.405Z,100.00
2023-04-26T19:11:53.074Z,100.00
2023-04-26T19:14:20.716Z,100.00
2023-04-26T19:16:49.647Z,100.00
2023-04-26T19:19:17.287Z,100.00
2023-04-26T19:21:44.955Z,100.00
2023-04-26T19:24:12.552Z,100.00
2023-04-26T19:26:40.245Z,100.00
2023-04-26T19:29:10.015Z,100.00
2023-04-26T19:31:37.735Z,100.00
2023-04-26T19:34:06.920Z,100.00
2023-04-26T19:36:36.407Z,100.00
2023-04-26T19:39:04.896Z,100.00
2023-04-26T19:41:32.511Z,100.00
2023-04-26T19:44:00.331Z,100.00
2023-04-26T19:46:27.955Z,100.00
2023-04-26T19:48:55.647Z,100.00
2023-04-26T19:51:24.904Z,100.00
2023-04-26T19:53:52.871Z,100.00
2023-04-26T19:56:20.534Z,100.00
2023-04-26T19:58:48.135Z,100.00
2023-04-26T20:01:15.979Z,100.00
2023-04-26T20:03:43.738Z,100.00
2023-04-26T20:06:13.848Z,100.00
2023-04-26T20:08:43.409Z,100.00
2023-04-26T20:11:15.130Z,100.00
2023-04-26T20:13:43.057Z,100.00
2023-04-26T20:16:11.409Z,100.00
2023-04-26T20:18:39.451Z,100.00
2023-04-26T20:21:07.117Z,100.00
2023-04-26T20:23:34.870Z,100.00
2023-04-26T20:26:04.371Z,100.00
2023-04-26T20:28:32.264Z,100.00
2023-04-26T20:30:59.926Z,100.00
2023-04-26T20:33:27.693Z,100.00
2023-04-26T20:35:55.319Z,100.00
2023-04-26T20:38:23.395Z,100.00
2023-04-26T20:40:51.157Z,100.00
2023-04-26T20:43:20.406Z,100.00
2023-04-26T20:45:48.041Z,100.00
2023-04-26T20:48:15.647Z,100.00
2023-04-26T20:50:43.351Z,100.00
2023-04-26T20:53:11.142Z,100.00
2023-04-26T20:55:39.144Z,100.00
2023-04-26T20:58:07.325Z,100.00
2023-04-26T21:00:36.408Z,100.00
2023-04-26T21:03:04.238Z,100.00
2023-04-26T21:05:32.005Z,100.00
2023-04-26T21:07:59.640Z,100.00
2023-04-26T21:10:27.393Z,100.00
2023-04-26T21:12:55.325Z,100.00
2023-04-26T21:15:23.030Z,100.00
2023-04-26T21:17:52.261Z,100.00
2023-04-26T21:20:20.131Z,100.00
2023-04-26T21:22:47.796Z,100.00
2023-04-26T21:25:17.112Z,100.00
2023-04-26T21:27:45.188Z,100.00
2023-04-26T21:30:13.621Z,100.00
2023-04-26T21:32:42.001Z,100.00
2023-04-26T21:35:12.006Z,100.00
2023-04-26T21:37:39.622Z,100.00
2023-04-26T21:40:09.044Z,100.00
2023-04-26T21:42:36.647Z,100.00
2023-04-26T21:45:04.561Z,100.00
2023-04-26T21:47:32.309Z,100.00
2023-04-26T21:49:59.980Z,100.00
2023-04-26T21:52:28.982Z,100.00
2023-04-26T21:54:56.617Z,100.00
2023-04-26T21:57:24.318Z,100.00
2023-04-26T21:59:52.195Z,100.00
2023-04-26T22:02:19.981Z,100.00
2023-04-26T22:04:47.720Z,100.00
2023-04-26T22:07:15.598Z,100.00
2023-04-26T22:09:44.543Z,100.00
2023-04-26T22:12:12.177Z,100.00
2023-04-26T22:14:40.136Z,100.00
2023-04-26T22:17:08.155Z,100.00
2023-04-26T22:19:35.730Z,100.00
2023-04-26T22:22:03.349Z,100.00
2023-04-26T22:24:30.958Z,100.00
2023-04-26T22:26:59.993Z,100.00
2023-04-26T22:29:27.981Z,100.00
2023-04-26T22:31:55.766Z,100.00
2023-04-26T22:34:23.431Z,100.00
2023-04-26T22:36:51.267Z,100.00
2023-04-26T22:39:18.922Z,100.00
2023-04-26T22:41:46.545Z,100.00
2023-04-26T22:44:15.700Z,100.00
2023-04-26T22:46:43.323Z,100.00
2023-04-26T22:49:11.295Z,100.00
2023-04-26T22:51:39.135Z,100.00
2023-04-26T22:54:07.587Z,100.00
2023-04-26T22:56:35.517Z,100.00
2023-04-26T22:59:03.281Z,100.00
2023-04-26T23:01:32.311Z,100.00
2023-04-26T23:03:59.982Z,100.00
2023-04-26T23:06:28.120Z,100.00
2023-04-26T23:08:55.710Z,100.00
2023-04-26T23:11:23.331Z,100.00
2023-04-26T23:13:52.651Z,100.00
2023-04-26T23:16:21.285Z,100.00
2023-04-26T23:18:50.443Z,100.00
2023-04-26T23:21:18.250Z,100.00
2023-04-26T23:23:45.950Z,100.00
2023-04-26T23:26:14.345Z,100.00
2023-04-26T23:28:41.950Z,100.00
2023-04-26T23:31:09.578Z,100.00
2023-04-26T23:33:37.233Z,100.00
2023-04-26T23:36:07.497Z,100.00
2023-04-26T23:38:35.100Z,100.00
2023-04-26T23:41:02.864Z,100.00
2023-04-26T23:43:30.805Z,100.00
2023-04-26T23:45:58.515Z,100.00
2023-04-26T23:48:26.181Z,100.00
2023-04-26T23:50:53.873Z,100.00
2023-04-26T23:53:22.861Z,100.00
2023-04-26T23:55:50.558Z,100.00
2023-04-26T23:58:18.246Z,100.00
